createdAt,value
2023-01-02T00:00:33.729Z,22.20
2023-01-02T00:03:00.802Z,28.30
2023-01-02T00:05:27.995Z,35.20
2023-01-02T00:07:55.208Z,26.60
2023-01-02T00:10:22.289Z,20.70
2023-01-02T00:12:49.259Z,22.90
2023-01-02T00:15:16.337Z,21.20
2023-01-02T00:17:43.303Z,22.10
2023-01-02T00:20:10.520Z,23.80
2023-01-02T00:22:37.578Z,23.30
2023-01-02T00:25:05.305Z,25.90
2023-01-02T00:27:32.450Z,23.50
2023-01-02T00:29:59.801Z,19.00
2023-01-02T00:32:26.999Z,19.20
2023-01-02T00:34:54.047Z,19.10
2023-01-02T00:37:21.704Z,20.50
2023-01-02T00:39:48.701Z,19.30
2023-01-02T00:42:15.616Z,18.80
2023-01-02T00:44:44.599Z,18.20
2023-01-02T00:47:11.958Z,12.90
2023-01-02T00:49:38.897Z,10.80
2023-01-02T00:52:07.614Z,12.00
2023-01-02T00:54:34.447Z,11.80
2023-01-02T00:57:01.328Z,13.30
2023-01-02T00:59:28.302Z,12.10
2023-01-02T01:01:55.373Z,14.80
2023-01-02T01:04:22.253Z,13.80
2023-01-02T01:06:50.563Z,15.20
2023-01-02T01:09:18.252Z,12.40
2023-01-02T01:11:45.367Z,11.40
2023-01-02T01:14:12.568Z,9.00
2023-01-02T01:16:40.284Z,14.10
2023-01-02T01:19:07.311Z,10.60
2023-01-02T01:21:34.207Z,9.20
2023-01-02T01:24:01.054Z,10.70
2023-01-02T01:26:27.929Z,13.30
2023-01-02T01:28:55.509Z,15.10
2023-01-02T01:31:22.846Z,16.20
2023-01-02T01:33:50.028Z,13.60
2023-01-02T01:36:19.475Z,12.70
2023-01-02T01:38:46.686Z,12.80
2023-01-02T01:41:17.312Z,15.40
2023-01-02T01:43:50.403Z,15.40
2023-01-02T01:46:38.676Z,11.70
2023-01-02T01:49:07.035Z,10.70
2023-01-02T01:51:35.651Z,8.20
2023-01-02T01:54:06.302Z,8.40
2023-01-02T01:56:35.713Z,6.90
2023-01-02T01:59:02.568Z,8.30
2023-01-02T02:01:29.904Z,7.20
2023-01-02T02:03:56.991Z,7.90
2023-01-02T02:06:24.363Z,7.80
2023-01-02T02:08:59.667Z,8.20
2023-01-02T02:11:26.794Z,8.80
2023-01-02T02:13:59.817Z,8.00
2023-01-02T02:16:29.012Z,8.50
2023-01-02T02:19:17.091Z,8.00
2023-01-02T02:21:56.288Z,8.40
2023-01-02T02:24:44.451Z,8.70
2023-01-02T02:27:36.336Z,8.50
2023-01-02T02:30:14.904Z,8.50
2023-01-02T02:32:57.373Z,6.90
2023-01-02T02:35:49.332Z,7.90
2023-01-02T02:38:50.492Z,8.20
2023-01-02T02:41:29.297Z,8.60
2023-01-02T02:44:33.198Z,9.30
2023-01-02T02:47:02.075Z,10.60
2023-01-02T02:49:48.899Z,10.30
2023-01-02T02:52:46.772Z,9.40
2023-01-02T02:55:30.086Z,11.60
2023-01-02T02:57:57.261Z,9.40
2023-01-02T03:00:24.425Z,11.70
2023-01-02T03:02:51.441Z,14.60
2023-01-02T03:05:37.957Z,14.40
2023-01-02T03:08:16.875Z,14.80
2023-01-02T03:10:56.838Z,15.90
2023-01-02T03:13:40.818Z,43.80
2023-01-02T03:16:13.171Z,22.90
2023-01-02T03:19:03.717Z,29.50
2023-01-02T03:21:33.343Z,20.40
2023-01-02T03:24:02.383Z,17.20
2023-01-02T03:26:30.922Z,15.50
2023-01-02T03:29:01.636Z,14.10
2023-01-02T03:31:28.682Z,16.70
2023-01-02T03:34:01.874Z,13.80
2023-01-02T03:36:29.757Z,15.70
2023-01-02T03:39:16.845Z,13.80
2023-01-02T03:41:46.573Z,12.90
2023-01-02T03:44:13.483Z,9.50
2023-01-02T03:46:59.309Z,6.00
2023-01-02T03:49:38.671Z,13.90
2023-01-02T03:52:05.543Z,11.50
2023-01-02T03:54:32.979Z,11.60
2023-01-02T03:57:09.149Z,9.50
2023-01-02T03:59:46.515Z,10.00
2023-01-02T04:02:17.134Z,24.30
2023-01-02T04:07:47.659Z,12.60
2023-01-02T04:10:15.145Z,14.00
2023-01-02T04:12:45.673Z,9.10
2023-01-02T04:15:13.248Z,11.50
2023-01-02T04:18:01.865Z,15.80
2023-01-02T04:20:31.397Z,10.50
2023-01-02T04:23:02.313Z,6.30
2023-01-02T04:25:32.088Z,5.10
2023-01-02T04:28:01.490Z,5.80
2023-01-02T04:30:29.725Z,7.00
2023-01-02T04:32:58.168Z,6.40
2023-01-02T04:35:24.989Z,6.80
2023-01-02T04:37:53.697Z,7.80
2023-01-02T04:40:38.983Z,9.90
2023-01-02T04:43:08.483Z,10.20
2023-01-02T04:45:35.393Z,10.20
2023-01-02T04:48:02.511Z,9.20
2023-01-02T04:50:29.635Z,10.30
2023-01-02T04:52:56.685Z,10.50
2023-01-02T04:55:23.675Z,11.60
2023-01-02T04:57:54.645Z,9.20
2023-01-02T05:00:21.693Z,9.90
2023-01-02T05:02:48.609Z,9.70
2023-01-02T05:05:15.597Z,10.30
2023-01-02T05:07:42.443Z,11.90
2023-01-02T05:10:10.601Z,12.30
2023-01-02T05:12:38.044Z,12.50
2023-01-02T05:15:06.997Z,9.40
2023-01-02T05:17:41.332Z,10.70
2023-01-02T05:20:10.792Z,11.70
2023-01-02T05:22:57.752Z,11.20
2023-01-02T05:25:25.606Z,11.20
2023-01-02T05:27:54.411Z,11.50
2023-01-02T05:30:21.992Z,12.10
2023-01-02T05:32:49.725Z,11.00
2023-01-02T05:35:16.818Z,17.90
2023-01-02T05:37:43.701Z,18.10
2023-01-02T05:40:11.526Z,19.80
2023-01-02T05:42:38.457Z,23.20
2023-01-02T05:45:05.895Z,39.10
2023-01-02T05:47:33.674Z,32.20
2023-01-02T05:50:00.835Z,22.90
2023-01-02T05:52:27.683Z,27.70
2023-01-02T05:54:55.030Z,24.40
2023-01-02T05:57:21.918Z,30.10
2023-01-02T05:59:48.812Z,31.90
2023-01-02T06:02:15.970Z,33.90
2023-01-02T06:04:42.926Z,36.00
2023-01-02T06:07:10.663Z,27.40
2023-01-02T06:09:37.563Z,23.80
2023-01-02T06:12:04.517Z,21.20
2023-01-02T06:14:31.637Z,26.30
2023-01-02T06:17:00.314Z,46.60
2023-01-02T06:19:27.905Z,30.00
2023-01-02T06:21:54.716Z,32.50
2023-01-02T06:24:21.638Z,26.80
2023-01-02T06:26:48.664Z,33.60
2023-01-02T06:29:15.845Z,32.90
2023-01-02T06:31:47.670Z,31.10
2023-01-02T06:34:17.952Z,34.40
2023-01-02T06:36:44.962Z,40.60
2023-01-02T06:39:12.850Z,36.80
2023-01-02T06:41:39.829Z,30.50
2023-01-02T06:44:06.819Z,30.30
2023-01-02T06:46:33.759Z,32.60
2023-01-02T06:49:00.960Z,38.30
2023-01-02T06:51:27.887Z,41.20
2023-01-02T06:53:55.739Z,43.10
2023-01-02T06:56:22.873Z,47.60
2023-01-02T06:58:49.892Z,35.40
2023-01-02T07:01:21.482Z,40.50
2023-01-02T07:03:48.769Z,55.60
2023-01-02T07:06:17.196Z,52.10
2023-01-02T07:08:44.319Z,56.40
2023-01-02T07:11:20.468Z,55.20
2023-01-02T07:13:48.031Z,62.50
2023-01-02T07:16:16.280Z,49.10
2023-01-02T07:18:43.780Z,47.30
2023-01-02T07:21:10.965Z,56.50
2023-01-02T07:23:37.847Z,54.10
2023-01-02T07:26:06.226Z,83.20
2023-01-02T07:28:33.676Z,50.90
2023-01-02T07:31:02.205Z,41.80
2023-01-02T07:33:29.572Z,32.40
2023-01-02T07:36:00.760Z,32.90
2023-01-02T07:38:27.766Z,30.60
2023-01-02T07:40:54.656Z,31.60
2023-01-02T07:43:21.562Z,34.50
2023-01-02T07:45:50.730Z,41.60
2023-01-02T07:48:18.741Z,40.80
2023-01-02T07:50:46.058Z,33.90
2023-01-02T07:53:13.246Z,34.90
2023-01-02T07:55:40.469Z,27.80
2023-01-02T07:58:07.677Z,42.10
2023-01-02T08:00:34.872Z,38.00
2023-01-02T08:03:01.783Z,34.50
2023-01-02T08:05:28.826Z,41.00
2023-01-02T08:07:57.015Z,24.20
2023-01-02T08:10:24.445Z,33.40
2023-01-02T08:12:52.315Z,28.60
2023-01-02T08:15:19.357Z,24.70
2023-01-02T08:17:46.547Z,26.50
2023-01-02T08:20:13.467Z,22.70
2023-01-02T08:22:40.283Z,23.20
2023-01-02T08:25:09.774Z,18.10
2023-01-02T08:27:37.136Z,17.40
2023-01-02T08:30:04.640Z,20.10
2023-01-02T08:32:35.893Z,24.60
2023-01-02T08:35:03.642Z,28.00
2023-01-02T08:37:30.613Z,28.80
2023-01-02T08:40:00.713Z,30.70
2023-01-02T08:42:27.672Z,33.40
2023-01-02T08:44:54.847Z,32.00
2023-01-02T08:47:23.193Z,33.20
2023-01-02T08:49:50.541Z,34.60
2023-01-02T08:52:17.400Z,31.20
2023-01-02T08:55:51.608Z,28.90
2023-01-02T08:58:18.999Z,23.80
2023-01-02T09:00:46.084Z,19.90
2023-01-02T09:03:13.079Z,19.70
2023-01-02T09:05:40.098Z,21.60
2023-01-02T09:08:07.860Z,28.70
2023-01-02T09:10:35.249Z,26.90
2023-01-02T09:13:03.744Z,21.80
2023-01-02T09:15:32.035Z,12.90
2023-01-02T09:17:59.498Z,11.90
2023-01-02T09:20:26.732Z,15.10
2023-01-02T09:22:53.683Z,13.80
2023-01-02T09:25:24.529Z,15.20
2023-01-02T09:27:52.116Z,16.20
2023-01-02T09:30:19.374Z,19.00
2023-01-02T09:32:49.262Z,13.60
2023-01-02T09:35:17.062Z,16.40
2023-01-02T09:37:44.503Z,15.40
2023-01-02T09:40:12.423Z,15.30
2023-01-02T09:42:39.863Z,16.00
2023-01-02T09:45:09.019Z,15.90
2023-01-02T09:47:36.239Z,12.90
2023-01-02T09:50:05.126Z,11.20
2023-01-02T09:52:36.802Z,10.40
2023-01-02T09:55:10.630Z,9.50
2023-01-02T09:58:10.564Z,10.70
2023-01-02T10:00:38.893Z,34.80
2023-01-02T10:03:21.705Z,15.90
2023-01-02T10:05:58.964Z,10.40
2023-01-02T10:08:36.518Z,9.40
2023-01-02T10:11:09.976Z,7.20
2023-01-02T10:16:45.105Z,21.60
2023-01-02T10:19:40.306Z,12.60
2023-01-02T10:22:09.182Z,10.10
2023-01-02T10:24:46.044Z,13.50
2023-01-02T10:27:17.216Z,12.70
2023-01-02T10:30:04.760Z,12.10
2023-01-02T10:32:33.021Z,8.40
2023-01-02T10:35:06.334Z,9.00
2023-01-02T10:37:33.949Z,8.90
2023-01-02T10:40:00.821Z,9.50
2023-01-02T10:42:27.637Z,11.00
2023-01-02T10:44:54.614Z,11.90
2023-01-02T10:47:38.308Z,10.60
2023-01-02T10:50:06.738Z,9.10
2023-01-02T10:52:35.530Z,11.60
2023-01-02T10:55:03.302Z,12.40
2023-01-02T10:57:33.195Z,11.60
2023-01-02T11:00:00.498Z,13.50
2023-01-02T11:02:32.424Z,15.80
2023-01-02T11:05:00.316Z,12.30
2023-01-02T11:07:27.233Z,16.50
2023-01-02T11:09:56.720Z,20.20
2023-01-02T11:12:27.280Z,16.10
2023-01-02T11:15:10.262Z,16.60
2023-01-02T11:17:44.165Z,158.30
2023-01-02T11:20:26.893Z,33.70
2023-01-02T11:22:55.213Z,19.50
2023-01-02T11:25:23.806Z,16.40
2023-01-02T11:27:51.538Z,11.20
2023-01-02T11:30:31.580Z,22.70
2023-01-02T11:33:22.584Z,10.20
2023-01-02T11:36:05.054Z,10.80
2023-01-02T11:38:48.412Z,6.00
2023-01-02T11:41:47.345Z,9.60
2023-01-02T11:44:26.783Z,70.90
2023-01-02T11:46:54.266Z,19.00
2023-01-02T11:49:23.633Z,12.10
2023-01-02T11:51:58.176Z,10.10
2023-01-02T11:54:40.083Z,16.10
2023-01-02T11:57:18.448Z,11.90
2023-01-02T11:59:48.048Z,10.40
2023-01-02T12:02:20.296Z,5.90
2023-01-02T12:04:50.705Z,8.20
2023-01-02T12:07:46.661Z,7.60
2023-01-02T12:10:17.151Z,9.30
2023-01-02T12:12:56.998Z,20.50
2023-01-02T12:15:42.728Z,18.00
2023-01-02T12:18:22.992Z,256.10
2023-01-02T12:20:54.418Z,109.70
2023-01-02T12:23:30.969Z,31.40
2023-01-02T12:26:25.172Z,24.80
2023-01-02T12:29:13.182Z,22.00
2023-01-02T12:32:06.842Z,25.30
2023-01-02T12:34:44.154Z,16.90
2023-01-02T12:37:17.240Z,11.50
2023-01-02T12:40:02.617Z,10.20
2023-01-02T12:43:03.541Z,12.80
2023-01-02T12:45:39.281Z,11.60
2023-01-02T12:48:19.907Z,18.20
2023-01-02T12:51:11.439Z,49.70
2023-01-02T12:54:19.512Z,37.20
2023-01-02T12:56:56.741Z,26.10
2023-01-02T12:59:35.573Z,21.90
2023-01-02T13:02:25.884Z,23.40
2023-01-02T13:04:56.762Z,14.80
2023-01-02T13:07:29.794Z,11.00
2023-01-02T13:09:56.670Z,16.00
2023-01-02T13:12:25.551Z,20.20
2023-01-02T13:14:54.162Z,17.20
2023-01-02T13:17:45.343Z,14.10
2023-01-02T13:20:50.958Z,12.90
2023-01-02T13:23:41.194Z,12.50
2023-01-02T13:26:09.359Z,17.20
2023-01-02T13:28:44.097Z,15.90
2023-01-02T13:31:44.642Z,15.90
2023-01-02T13:33:58.763Z,12.10
2023-01-02T13:36:39.676Z,15.20
2023-01-02T13:39:17.706Z,13.30
2023-01-02T13:42:21.797Z,11.20
2023-01-02T13:44:53.727Z,10.60
2023-01-02T13:47:25.574Z,12.00
2023-01-02T13:50:20.028Z,12.50
2023-01-02T13:53:09.995Z,13.90
2023-01-02T13:55:57.329Z,11.80
2023-01-02T13:58:25.695Z,11.50
2023-01-02T14:00:55.814Z,13.30
2023-01-02T14:03:23.461Z,13.60
2023-01-02T14:06:01.836Z,12.70
2023-01-02T14:08:30.839Z,14.00
2023-01-02T14:11:21.644Z,16.20
2023-01-02T14:13:51.209Z,13.90
2023-01-02T14:16:41.338Z,15.50
2023-01-02T14:19:14.028Z,19.90
2023-01-02T14:21:54.204Z,23.30
2023-01-02T14:24:41.293Z,29.80
2023-01-02T14:27:27.792Z,33.20
2023-01-02T14:30:08.877Z,28.80
2023-01-02T14:32:46.131Z,30.70
2023-01-02T14:35:12.990Z,27.60
2023-01-02T14:37:48.140Z,27.90
2023-01-02T14:40:21.347Z,25.10
2023-01-02T14:43:13.865Z,24.30
2023-01-02T14:45:44.940Z,23.20
2023-01-02T14:50:40.371Z,20.90
2023-01-02T14:53:19.146Z,30.80
2023-01-02T14:55:46.282Z,30.50
2023-01-02T14:58:21.879Z,53.50
2023-01-02T15:00:48.941Z,47.60
2023-01-02T15:03:23.842Z,91.50
2023-01-02T15:05:56.504Z,61.30
2023-01-02T15:08:31.848Z,83.10
2023-01-02T15:11:20.596Z,78.80
2023-01-02T15:14:04.498Z,42.20
2023-01-02T15:16:34.647Z,41.30
2023-01-02T15:19:02.180Z,30.60
2023-01-02T15:21:31.643Z,40.90
2023-01-02T15:24:00.163Z,41.10
2023-01-02T15:26:32.986Z,58.20
2023-01-02T15:29:03.650Z,57.20
2023-01-02T15:31:30.656Z,59.30
2023-01-02T15:34:00.371Z,49.90
2023-01-02T15:36:37.325Z,55.10
2023-01-02T15:39:06.964Z,47.60
2023-01-02T15:41:41.311Z,48.90
2023-01-02T15:44:29.062Z,43.10
2023-01-02T15:46:56.470Z,30.40
2023-01-02T15:49:23.774Z,40.50
2023-01-02T15:51:51.372Z,41.10
2023-01-02T15:54:18.753Z,56.60
2023-01-02T15:56:45.692Z,52.50
2023-01-02T15:59:28.901Z,59.40
2023-01-02T16:01:56.304Z,71.60
2023-01-02T16:04:25.051Z,89.50
2023-01-02T16:06:52.087Z,81.20
2023-01-02T16:09:24.200Z,53.50
2023-01-02T16:11:53.417Z,62.00
2023-01-02T16:14:38.973Z,72.10
2023-01-02T16:17:27.921Z,58.50
2023-01-02T16:19:58.784Z,49.20
2023-01-02T16:22:31.316Z,49.20
2023-01-02T16:25:13.273Z,50.80
2023-01-02T16:27:48.190Z,58.30
2023-01-02T16:30:38.186Z,57.00
2023-01-02T16:33:34.355Z,50.00
2023-01-02T16:36:04.269Z,64.20
2023-01-02T16:38:53.142Z,59.80
2023-01-02T16:41:34.084Z,62.40
2023-01-02T16:44:01.727Z,66.20
2023-01-02T16:46:28.928Z,59.90
2023-01-02T16:49:01.347Z,65.70
2023-01-02T16:51:32.367Z,63.10
2023-01-02T16:53:59.483Z,50.00
2023-01-02T16:56:26.522Z,52.20
2023-01-02T16:58:53.582Z,55.60
2023-01-02T17:01:20.839Z,60.30
2023-01-02T17:03:47.862Z,61.90
2023-01-02T17:06:15.966Z,63.90
2023-01-02T17:08:42.926Z,54.50
2023-01-02T17:11:15.187Z,61.40
2023-01-02T17:13:42.675Z,48.10
2023-01-02T17:16:09.797Z,52.00
2023-01-02T17:18:36.856Z,50.40
2023-01-02T17:21:03.901Z,60.50
2023-01-02T17:23:30.896Z,64.60
2023-01-02T17:25:57.905Z,64.70
2023-01-02T17:28:24.992Z,63.90
2023-01-02T17:30:52.131Z,57.50
2023-01-02T17:33:20.073Z,46.90
2023-01-02T17:35:47.732Z,48.90
2023-01-02T17:38:14.812Z,50.00
2023-01-02T17:40:42.478Z,53.20
2023-01-02T17:43:09.333Z,57.60
2023-01-02T17:45:36.201Z,52.20
2023-01-02T17:48:11.171Z,58.40
2023-01-02T17:50:38.985Z,56.20
2023-01-02T17:53:07.563Z,49.90
2023-01-02T17:55:34.902Z,50.20
2023-01-02T17:58:03.575Z,45.20
2023-01-02T18:00:30.598Z,46.90
2023-01-02T18:02:57.624Z,55.00
2023-01-02T18:05:24.505Z,57.20
2023-01-02T18:07:53.692Z,57.10
2023-01-02T18:10:21.463Z,46.60
2023-01-02T18:12:50.474Z,30.00
2023-01-02T18:15:20.304Z,31.20
2023-01-02T18:17:47.831Z,32.10
2023-01-02T18:20:20.433Z,32.90
2023-01-02T18:22:50.130Z,32.90
2023-01-02T18:25:24.443Z,33.10
2023-01-02T18:27:51.816Z,33.40
2023-01-02T18:30:23.839Z,25.30
2023-01-02T18:33:10.939Z,29.40
2023-01-02T18:35:56.597Z,58.90
2023-01-02T18:38:30.822Z,76.40
2023-01-02T18:40:57.840Z,56.70
2023-01-02T18:43:24.817Z,45.30
2023-01-02T18:45:54.738Z,35.00
2023-01-02T18:48:22.062Z,40.10
2023-01-02T18:51:00.132Z,27.60
2023-01-02T18:53:35.444Z,32.10
2023-01-02T18:56:11.363Z,27.70
2023-01-02T18:58:44.164Z,30.40
2023-01-02T19:01:24.888Z,31.40
2023-01-02T19:03:56.771Z,29.90
2023-01-02T19:06:25.903Z,31.60
2023-01-02T19:08:52.893Z,31.60
2023-01-02T19:11:49.829Z,36.00
2023-01-02T19:14:18.397Z,35.70
2023-01-02T19:16:45.325Z,31.60
2023-01-02T19:19:24.136Z,39.30
2023-01-02T19:21:51.324Z,36.00
2023-01-02T19:24:20.271Z,36.90
2023-01-02T19:26:48.969Z,37.50
2023-01-02T19:29:22.777Z,30.50
2023-01-02T19:32:02.287Z,44.40
2023-01-02T19:34:45.833Z,44.50
2023-01-02T19:37:12.954Z,53.70
2023-01-02T19:39:54.301Z,54.70
2023-01-02T19:44:55.545Z,78.80
2023-01-02T19:47:24.534Z,76.20
2023-01-02T19:49:51.664Z,92.70
2023-01-02T19:52:19.407Z,64.10
2023-01-02T19:54:46.437Z,66.10
2023-01-02T19:57:13.705Z,58.70
2023-01-02T19:59:45.448Z,66.40
2023-01-02T20:02:13.525Z,63.50
2023-01-02T20:04:42.616Z,52.70
2023-01-02T20:07:09.512Z,55.70
2023-01-02T20:09:36.880Z,67.70
2023-01-02T20:12:23.049Z,65.70
2023-01-02T20:14:49.979Z,64.50
2023-01-02T20:17:16.885Z,58.20
2023-01-02T20:19:43.733Z,64.20
2023-01-02T20:22:10.675Z,49.90
2023-01-02T20:24:39.858Z,62.30
2023-01-02T20:27:07.716Z,61.00
2023-01-02T20:29:34.571Z,51.60
2023-01-02T20:32:02.240Z,59.90
2023-01-02T20:34:29.817Z,46.90
2023-01-02T20:36:57.999Z,43.10
2023-01-02T20:39:27.441Z,33.90
2023-01-02T20:41:54.381Z,43.00
2023-01-02T20:44:21.246Z,44.20
2023-01-02T20:46:48.125Z,42.70
2023-01-02T20:49:15.269Z,49.10
2023-01-02T20:51:42.312Z,44.70
2023-01-02T20:54:10.061Z,46.60
2023-01-02T20:56:36.920Z,38.70
2023-01-02T20:59:03.867Z,39.50
2023-01-02T21:01:30.865Z,39.50
2023-01-02T21:03:58.946Z,39.30
2023-01-02T21:06:25.947Z,44.30
2023-01-02T21:08:53.591Z,79.80
2023-01-02T21:11:20.439Z,70.20
2023-01-02T21:13:47.391Z,37.50
2023-01-02T21:16:14.795Z,45.80
2023-01-02T21:18:42.798Z,49.90
2023-01-02T21:21:16.398Z,43.80
2023-01-02T21:23:43.541Z,43.50
2023-01-02T21:26:12.271Z,52.80
2023-01-02T21:28:39.168Z,68.00
2023-01-02T21:31:06.855Z,48.10
2023-01-02T21:33:33.757Z,43.30
2023-01-02T21:36:01.643Z,32.00
2023-01-02T21:38:29.635Z,29.70
2023-01-02T21:41:16.739Z,26.70
2023-01-02T21:43:44.627Z,30.00
2023-01-02T21:46:11.659Z,26.30
2023-01-02T21:48:39.630Z,21.30
2023-01-02T21:51:08.465Z,25.50
2023-01-02T21:53:36.748Z,22.50
2023-01-02T21:56:03.925Z,22.40
2023-01-02T21:58:31.417Z,26.40
2023-01-02T22:00:58.489Z,26.20
2023-01-02T22:03:25.539Z,25.40
2023-01-02T22:05:53.830Z,22.70
2023-01-02T22:08:21.202Z,27.80
2023-01-02T22:10:49.093Z,25.40
2023-01-02T22:13:16.408Z,23.50
2023-01-02T22:15:45.713Z,23.50
2023-01-02T22:18:25.672Z,22.30
2023-01-02T22:20:52.665Z,26.80
2023-01-02T22:23:20.193Z,24.50
2023-01-02T22:25:47.138Z,27.60
2023-01-02T22:28:13.948Z,43.30
2023-01-02T22:30:40.887Z,44.80
2023-01-02T22:33:07.774Z,31.30
2023-01-02T22:35:35.059Z,35.40
2023-01-02T22:38:02.063Z,49.20
2023-01-02T22:40:29.261Z,38.10
2023-01-02T22:43:05.427Z,36.00
2023-01-02T22:45:35.982Z,29.40
2023-01-02T22:48:05.909Z,26.90
2023-01-02T22:50:40.293Z,28.90
2023-01-02T22:53:11.627Z,38.60
2023-01-02T22:55:38.525Z,30.10
2023-01-02T22:58:06.894Z,25.00
2023-01-02T23:00:34.776Z,25.80
2023-01-02T23:03:01.800Z,23.80
2023-01-02T23:05:28.747Z,25.00
2023-01-02T23:07:55.759Z,21.20
2023-01-02T23:10:22.823Z,26.90
2023-01-02T23:12:50.045Z,23.40
2023-01-02T23:15:17.080Z,16.30
2023-01-02T23:18:03.854Z,15.10
2023-01-02T23:20:30.835Z,23.10
2023-01-02T23:22:57.663Z,23.20
2023-01-02T23:25:24.587Z,30.40
2023-01-02T23:27:51.740Z,23.90
2023-01-02T23:30:19.365Z,23.30
2023-01-02T23:32:46.380Z,15.50
2023-01-02T23:35:13.283Z,17.50
2023-01-02T23:37:43.232Z,15.50
2023-01-02T23:40:10.862Z,16.60
2023-01-02T23:42:37.900Z,21.20
2023-01-02T23:45:07.861Z,19.30
2023-01-02T23:47:34.965Z,22.70
2023-01-02T23:50:01.922Z,18.50
2023-01-02T23:52:28.934Z,16.00
2023-01-02T23:54:55.766Z,16.30
2023-01-02T23:57:22.881Z,22.40
2023-01-02T23:59:50.247Z,25.00
